sensor_id;sensor_type;location;lat;lon;timestamp;pressure;altitude;pressure_sealevel;temperature;humidity
81909;BME280;71372;43.514;1.512;2024-02-28T00:01:22;100463.78;;;7.85;78.49
81909;BME280;71372;43.514;1.512;2024-02-28T00:03:48;100467.41;;;7.83;78.24
81909;BME280;71372;43.514;1.512;2024-02-28T00:06:17;100465.69;;;7.80;78.10
81909;BME280;71372;43.514;1.512;2024-02-28T00:08:43;100471.84;;;7.82;78.58
81909;BME280;71372;43.514;1.512;2024-02-28T00:11:09;100481.53;;;7.83;78.21
81909;BME280;71372;43.514;1.512;2024-02-28T00:13:35;100471.72;;;7.85;78.65
81909;BME280;71372;43.514;1.512;2024-02-28T00:16:02;100477.16;;;7.81;78.39
81909;BME280;71372;43.514;1.512;2024-02-28T00:18:29;100480.69;;;7.81;78.00
81909;BME280;71372;43.514;1.512;2024-02-28T00:20:57;100484.16;;;7.83;78.64
81909;BME280;71372;43.514;1.512;2024-02-28T00:23:22;100477.13;;;7.82;78.10
81909;BME280;71372;43.514;1.512;2024-02-28T00:25:48;100493.81;;;7.86;77.92
81909;BME280;71372;43.514;1.512;2024-02-28T00:28:14;100495.50;;;7.88;77.62
81909;BME280;71372;43.514;1.512;2024-02-28T00:30:40;100511.28;;;7.91;78.45
81909;BME280;71372;43.514;1.512;2024-02-28T00:33:06;100509.56;;;7.90;78.20
81909;BME280;71372;43.514;1.512;2024-02-28T00:35:33;100506.19;;;7.85;78.12
81909;BME280;71372;43.514;1.512;2024-02-28T00:37:59;100501.59;;;7.90;78.05
81909;BME280;71372;43.514;1.512;2024-02-28T00:40:25;100510.63;;;7.85;78.22
81909;BME280;71372;43.514;1.512;2024-02-28T00:42:51;100507.72;;;7.92;78.12
81909;BME280;71372;43.514;1.512;2024-02-28T00:45:17;100497.31;;;7.86;77.71
81909;BME280;71372;43.514;1.512;2024-02-28T00:47:43;100499.16;;;7.84;77.78
81909;BME280;71372;43.514;1.512;2024-02-28T00:50:09;100496.72;;;7.77;77.84
81909;BME280;71372;43.514;1.512;2024-02-28T00:52:35;100501.84;;;7.83;78.14
81909;BME280;71372;43.514;1.512;2024-02-28T00:55:01;100496.56;;;7.83;77.82
81909;BME280;71372;43.514;1.512;2024-02-28T00:57:27;100505.31;;;7.85;77.91
81909;BME280;71372;43.514;1.512;2024-02-28T00:59:53;100495.84;;;7.76;77.89
81909;BME280;71372;43.514;1.512;2024-02-28T01:02:20;100500.06;;;7.83;77.60
81909;BME280;71372;43.514;1.512;2024-02-28T01:04:47;100487.75;;;7.81;77.45
81909;BME280;71372;43.514;1.512;2024-02-28T01:07:13;100486.31;;;7.71;77.63
81909;BME280;71372;43.514;1.512;2024-02-28T01:09:39;100490.75;;;7.70;77.66
81909;BME280;71372;43.514;1.512;2024-02-28T01:12:05;100487.09;;;7.74;78.18
81909;BME280;71372;43.514;1.512;2024-02-28T01:14:31;100491.53;;;7.74;77.73
81909;BME280;71372;43.514;1.512;2024-02-28T01:16:57;100494.94;;;7.77;77.76
81909;BME280;71372;43.514;1.512;2024-02-28T01:19:22;100494.84;;;7.80;77.76
81909;BME280;71372;43.514;1.512;2024-02-28T01:21:49;100494.94;;;7.77;77.60
81909;BME280;71372;43.514;1.512;2024-02-28T01:24:14;100501.38;;;7.69;77.72
81909;BME280;71372;43.514;1.512;2024-02-28T01:26:40;100505.69;;;7.73;77.65
81909;BME280;71372;43.514;1.512;2024-02-28T01:29:07;100506.66;;;7.70;77.88
81909;BME280;71372;43.514;1.512;2024-02-28T01:31:33;100503.13;;;7.70;77.66
81909;BME280;71372;43.514;1.512;2024-02-28T01:33:59;100501.38;;;7.69;78.15
81909;BME280;71372;43.514;1.512;2024-02-28T01:36:25;100501.41;;;7.67;77.73
81909;BME280;71372;43.514;1.512;2024-02-28T01:38:52;100504.13;;;7.66;77.86
81909;BME280;71372;43.514;1.512;2024-02-28T01:41:18;100500.75;;;7.60;77.69
81909;BME280;71372;43.514;1.512;2024-02-28T01:43:44;100501.72;;;7.58;78.15
81909;BME280;71372;43.514;1.512;2024-02-28T01:46:28;100518.38;;;7.61;77.91
81909;BME280;71372;43.514;1.512;2024-02-28T01:48:55;100518.53;;;7.55;77.43
81909;BME280;71372;43.514;1.512;2024-02-28T01:51:24;100513.06;;;7.61;77.98
81909;BME280;71372;43.514;1.512;2024-02-28T01:53:52;100520.94;;;7.65;77.79
81909;BME280;71372;43.514;1.512;2024-02-28T01:56:18;100511.28;;;7.62;77.59
81909;BME280;71372;43.514;1.512;2024-02-28T01:58:46;100517.59;;;7.58;77.76
81909;BME280;71372;43.514;1.512;2024-02-28T02:01:16;100516.63;;;7.60;77.73
81909;BME280;71372;43.514;1.512;2024-02-28T02:03:45;100512.22;;;7.61;77.96
81909;BME280;71372;43.514;1.512;2024-02-28T02:06:11;100513.22;;;7.55;77.68
81909;BME280;71372;43.514;1.512;2024-02-28T02:08:38;100512.31;;;7.56;77.79
81909;BME280;71372;43.514;1.512;2024-02-28T02:11:05;100516.75;;;7.56;77.35
81909;BME280;71372;43.514;1.512;2024-02-28T02:13:34;100515.97;;;7.52;77.34
81909;BME280;71372;43.514;1.512;2024-02-28T02:16:01;100514.25;;;7.51;77.72
81909;BME280;71372;43.514;1.512;2024-02-28T02:18:27;100521.13;;;7.57;77.79
81909;BME280;71372;43.514;1.512;2024-02-28T02:20:58;100520.56;;;7.46;78.20
81909;BME280;71372;43.514;1.512;2024-02-28T02:23:27;100521.19;;;7.55;77.67
81909;BME280;71372;43.514;1.512;2024-02-28T02:25:53;100513.22;;;7.55;77.60
81909;BME280;71372;43.514;1.512;2024-02-28T02:28:19;100514.06;;;7.57;77.84
81909;BME280;71372;43.514;1.512;2024-02-28T02:30:45;100517.00;;;7.48;77.54
81909;BME280;71372;43.514;1.512;2024-02-28T02:33:13;100510.81;;;7.48;77.76
81909;BME280;71372;43.514;1.512;2024-02-28T02:35:39;100521.38;;;7.49;77.56
81909;BME280;71372;43.514;1.512;2024-02-28T02:38:04;100520.31;;;7.55;77.43
81909;BME280;71372;43.514;1.512;2024-02-28T02:40:30;100519.50;;;7.53;77.59
81909;BME280;71372;43.514;1.512;2024-02-28T02:42:56;100519.50;;;7.53;77.57
81909;BME280;71372;43.514;1.512;2024-02-28T02:45:22;100522.44;;;7.42;77.56
81909;BME280;71372;43.514;1.512;2024-02-28T02:47:48;100513.63;;;7.42;77.75
81909;BME280;71372;43.514;1.512;2024-02-28T02:50:14;100519.03;;;7.39;77.84
81909;BME280;71372;43.514;1.512;2024-02-28T02:52:40;100522.41;;;7.44;77.78
81909;BME280;71372;43.514;1.512;2024-02-28T02:55:06;100521.75;;;7.36;77.68
81909;BME280;71372;43.514;1.512;2024-02-28T02:57:33;100513.88;;;7.34;77.51
81909;BME280;71372;43.514;1.512;2024-02-28T02:59:59;100525.13;;;7.41;78.19
81909;BME280;71372;43.514;1.512;2024-02-28T03:02:25;100517.47;;;7.30;77.90
81909;BME280;71372;43.514;1.512;2024-02-28T03:04:50;100528.84;;;7.33;77.86
81909;BME280;71372;43.514;1.512;2024-02-28T03:07:16;100529.75;;;7.32;77.56
81909;BME280;71372;43.514;1.512;2024-02-28T03:09:42;100537.84;;;7.28;78.04
81909;BME280;71372;43.514;1.512;2024-02-28T03:12:08;100529.03;;;7.27;77.87
81909;BME280;71372;43.514;1.512;2024-02-28T03:14:35;100532.47;;;7.31;77.94
81909;BME280;71372;43.514;1.512;2024-02-28T03:17:01;100542.91;;;7.37;77.75
81909;BME280;71372;43.514;1.512;2024-02-28T03:19:27;100537.75;;;7.31;77.53
81909;BME280;71372;43.514;1.512;2024-02-28T03:21:53;100545.56;;;7.37;77.32
81909;BME280;71372;43.514;1.512;2024-02-28T03:24:19;100541.44;;;7.25;77.64
81909;BME280;71372;43.514;1.512;2024-02-28T03:26:45;100553.00;;;7.23;77.60
81909;BME280;71372;43.514;1.512;2024-02-28T03:29:11;100551.50;;;7.13;77.56
81909;BME280;71372;43.514;1.512;2024-02-28T03:31:37;100557.34;;;7.25;77.87
81909;BME280;71372;43.514;1.512;2024-02-28T03:34:03;100553.94;;;7.20;77.99
81909;BME280;71372;43.514;1.512;2024-02-28T03:36:29;100560.00;;;7.25;77.83
81909;BME280;71372;43.514;1.512;2024-02-28T03:38:55;100564.47;;;7.23;77.33
81909;BME280;71372;43.514;1.512;2024-02-28T03:41:22;100560.84;;;7.26;77.61
81909;BME280;71372;43.514;1.512;2024-02-28T03:43:47;100569.53;;;7.31;77.40
81909;BME280;71372;43.514;1.512;2024-02-28T03:46:13;100574.88;;;7.29;77.25
81909;BME280;71372;43.514;1.512;2024-02-28T03:48:39;100581.81;;;7.33;77.43
81909;BME280;71372;43.514;1.512;2024-02-28T03:51:05;100573.91;;;7.32;76.97
81909;BME280;71372;43.514;1.512;2024-02-28T03:53:31;100574.19;;;7.23;77.01
81909;BME280;71372;43.514;1.512;2024-02-28T03:55:58;100564.38;;;7.26;76.80
81909;BME280;71372;43.514;1.512;2024-02-28T03:58:24;100567.94;;;7.25;77.21
81909;BME280;71372;43.514;1.512;2024-02-28T04:00:50;100571.31;;;7.30;77.39
81909;BME280;71372;43.514;1.512;2024-02-28T04:03:15;100570.44;;;7.30;77.08
81909;BME280;71372;43.514;1.512;2024-02-28T04:05:42;100572.47;;;7.20;76.81
81909;BME280;71372;43.514;1.512;2024-02-28T04:08:08;100575.84;;;7.27;77.01
81909;BME280;71372;43.514;1.512;2024-02-28T04:10:34;100579.41;;;7.26;77.01
81909;BME280;71372;43.514;1.512;2024-02-28T04:13:00;100575.19;;;7.17;77.35
81909;BME280;71372;43.514;1.512;2024-02-28T04:15:26;100581.41;;;7.16;76.76
81909;BME280;71372;43.514;1.512;2024-02-28T04:17:52;100584.13;;;7.13;76.86
81909;BME280;71372;43.514;1.512;2024-02-28T04:20:18;100585.66;;;7.22;76.75
81909;BME280;71372;43.514;1.512;2024-02-28T04:22:44;100591.09;;;7.17;77.10
81909;BME280;71372;43.514;1.512;2024-02-28T04:25:10;100588.44;;;7.17;76.71
81909;BME280;71372;43.514;1.512;2024-02-28T04:27:36;100586.50;;;7.24;76.45
81909;BME280;71372;43.514;1.512;2024-02-28T04:30:03;100596.28;;;7.20;76.47
81909;BME280;71372;43.514;1.512;2024-02-28T04:32:29;100590.06;;;7.23;76.30
81909;BME280;71372;43.514;1.512;2024-02-28T04:34:55;100596.38;;;7.17;76.17
81909;BME280;71372;43.514;1.512;2024-02-28T04:37:21;100602.63;;;7.15;76.42
81909;BME280;71372;43.514;1.512;2024-02-28T04:39:47;100594.88;;;7.07;76.45
81909;BME280;71372;43.514;1.512;2024-02-28T04:42:15;100604.44;;;7.13;76.61
81909;BME280;71372;43.514;1.512;2024-02-28T04:44:42;100606.31;;;7.08;76.55
81909;BME280;71372;43.514;1.512;2024-02-28T04:47:08;100604.53;;;7.08;76.27
81909;BME280;71372;43.514;1.512;2024-02-28T04:49:37;100608.09;;;7.07;76.76
81909;BME280;71372;43.514;1.512;2024-02-28T04:52:04;100611.56;;;7.09;76.63
81909;BME280;71372;43.514;1.512;2024-02-28T04:54:31;100614.53;;;6.97;76.45
81909;BME280;71372;43.514;1.512;2024-02-28T04:56:57;100616.34;;;6.95;76.55
81909;BME280;71372;43.514;1.512;2024-02-28T04:59:23;100601.97;;;7.05;76.70
81909;BME280;71372;43.514;1.512;2024-02-28T05:01:49;100607.19;;;7.08;76.54
81909;BME280;71372;43.514;1.512;2024-02-28T05:04:15;100612.66;;;7.02;76.75
81909;BME280;71372;43.514;1.512;2024-02-28T05:06:41;100612.50;;;7.08;76.38
81909;BME280;71372;43.514;1.512;2024-02-28T05:09:07;100616.22;;;7.01;76.79
81909;BME280;71372;43.514;1.512;2024-02-28T05:11:33;100621.59;;;6.96;76.55
81909;BME280;71372;43.514;1.512;2024-02-28T05:13:58;100614.41;;;7.03;76.46
81909;BME280;71372;43.514;1.512;2024-02-28T05:16:24;100617.09;;;7.01;76.65
81909;BME280;71372;43.514;1.512;2024-02-28T05:18:50;100618.03;;;6.99;76.59
81909;BME280;71372;43.514;1.512;2024-02-28T05:21:16;100626.94;;;6.95;76.49
81909;BME280;71372;43.514;1.512;2024-02-28T05:23:42;100626.81;;;7.01;76.41
81909;BME280;71372;43.514;1.512;2024-02-28T05:26:08;100628.66;;;6.96;76.51
81909;BME280;71372;43.514;1.512;2024-02-28T05:28:34;100620.50;;;7.05;76.57
81909;BME280;71372;43.514;1.512;2024-02-28T05:31:24;100636.56;;;6.99;76.45
81909;BME280;71372;43.514;1.512;2024-02-28T05:33:54;100632.16;;;6.98;76.59
81909;BME280;71372;43.514;1.512;2024-02-28T05:36:21;100627.81;;;6.95;76.66
81909;BME280;71372;43.514;1.512;2024-02-28T05:38:47;100634.84;;;6.96;76.30
81909;BME280;71372;43.514;1.512;2024-02-28T05:41:13;100633.06;;;6.97;76.48
81909;BME280;71372;43.514;1.512;2024-02-28T05:43:40;100640.22;;;6.93;76.66
81909;BME280;71372;43.514;1.512;2024-02-28T05:46:06;100636.69;;;6.93;76.69
81909;BME280;71372;43.514;1.512;2024-02-28T05:48:32;100635.78;;;6.94;76.24
81909;BME280;71372;43.514;1.512;2024-02-28T05:51:00;100642.91;;;6.92;76.37
81909;BME280;71372;43.514;1.512;2024-02-28T05:53:26;100646.44;;;6.91;76.83
81909;BME280;71372;43.514;1.512;2024-02-28T05:55:53;100654.44;;;6.89;76.71
81909;BME280;71372;43.514;1.512;2024-02-28T05:58:19;100655.38;;;6.85;76.75
81909;BME280;71372;43.514;1.512;2024-02-28T06:00:45;100659.06;;;6.80;76.82
81909;BME280;71372;43.514;1.512;2024-02-28T06:03:11;100653.69;;;6.83;76.91
81909;BME280;71372;43.514;1.512;2024-02-28T06:05:37;100652.22;;;6.69;76.90
81909;BME280;71372;43.514;1.512;2024-02-28T06:08:03;100672.53;;;6.69;77.08
81909;BME280;71372;43.514;1.512;2024-02-28T06:10:29;100676.78;;;6.74;76.94
81909;BME280;71372;43.514;1.512;2024-02-28T06:12:55;100673.41;;;6.69;77.26
81909;BME280;71372;43.514;1.512;2024-02-28T06:15:21;100671.63;;;6.70;76.91
81909;BME280;71372;43.514;1.512;2024-02-28T06:17:47;100676.00;;;6.71;77.06
81909;BME280;71372;43.514;1.512;2024-02-28T06:20:13;100680.34;;;6.73;76.75
81909;BME280;71372;43.514;1.512;2024-02-28T06:22:39;100677.91;;;6.66;77.06
81909;BME280;71372;43.514;1.512;2024-02-28T06:25:05;100683.19;;;6.66;76.96
81909;BME280;71372;43.514;1.512;2024-02-28T06:27:33;100686.50;;;6.74;76.61
81909;BME280;71372;43.514;1.512;2024-02-28T06:29:59;100690.31;;;6.62;76.97
81909;BME280;71372;43.514;1.512;2024-02-28T06:32:25;100688.41;;;6.69;77.20
81909;BME280;71372;43.514;1.512;2024-02-28T06:34:51;100689.22;;;6.71;77.15
81909;BME280;71372;43.514;1.512;2024-02-28T06:37:17;100697.19;;;6.71;76.71
81909;BME280;71372;43.514;1.512;2024-02-28T06:39:43;100704.28;;;6.69;77.02
81909;BME280;71372;43.514;1.512;2024-02-28T06:42:09;100694.63;;;6.66;77.02
81909;BME280;71372;43.514;1.512;2024-02-28T06:44:35;100706.13;;;6.65;76.80
81909;BME280;71372;43.514;1.512;2024-02-28T06:47:01;100707.06;;;6.61;77.36
81909;BME280;71372;43.514;1.512;2024-02-28T06:49:27;100703.66;;;6.56;76.86
81909;BME280;71372;43.514;1.512;2024-02-28T06:51:53;100708.88;;;6.59;77.05
81909;BME280;71372;43.514;1.512;2024-02-28T06:54:20;100713.09;;;6.69;77.36
81909;BME280;71372;43.514;1.512;2024-02-28T06:56:46;100712.19;;;6.70;77.12
81909;BME280;71372;43.514;1.512;2024-02-28T06:59:12;100713.38;;;6.56;77.30
81909;BME280;71372;43.514;1.512;2024-02-28T07:01:38;100720.34;;;6.60;77.36
81909;BME280;71372;43.514;1.512;2024-02-28T07:04:03;100723.09;;;6.55;77.50
81909;BME280;71372;43.514;1.512;2024-02-28T07:06:29;100731.75;;;6.62;77.88
81909;BME280;71372;43.514;1.512;2024-02-28T07:08:55;100736.94;;;6.68;76.94
81909;BME280;71372;43.514;1.512;2024-02-28T07:11:21;100724.50;;;6.71;76.89
81909;BME280;71372;43.514;1.512;2024-02-28T07:13:47;100732.59;;;6.65;77.19
81909;BME280;71372;43.514;1.512;2024-02-28T07:16:13;100737.69;;;6.73;76.89
81909;BME280;71372;43.514;1.512;2024-02-28T07:18:39;100737.72;;;6.71;76.78
81909;BME280;71372;43.514;1.512;2024-02-28T07:21:05;100731.50;;;6.76;76.67
81909;BME280;71372;43.514;1.512;2024-02-28T07:23:32;100744.91;;;6.66;76.62
81909;BME280;71372;43.514;1.512;2024-02-28T07:25:58;100749.03;;;6.80;76.81
81909;BME280;71372;43.514;1.512;2024-02-28T07:28:24;100754.31;;;6.80;76.18
81909;BME280;71372;43.514;1.512;2024-02-28T07:30:50;100734.03;;;6.80;76.51
81909;BME280;71372;43.514;1.512;2024-02-28T07:33:16;100744.56;;;6.82;76.47
81909;BME280;71372;43.514;1.512;2024-02-28T07:35:49;100744.69;;;6.77;76.50
81909;BME280;71372;43.514;1.512;2024-02-28T07:38:15;100751.03;;;6.68;76.17
81909;BME280;71372;43.514;1.512;2024-02-28T07:40:43;100747.38;;;6.76;76.29
81909;BME280;71372;43.514;1.512;2024-02-28T07:43:09;100753.44;;;6.79;76.14
81909;BME280;71372;43.514;1.512;2024-02-28T07:45:35;100743.84;;;6.73;76.28
81909;BME280;71372;43.514;1.512;2024-02-28T07:48:01;100755.16;;;6.82;76.03
81909;BME280;71372;43.514;1.512;2024-02-28T07:50:27;100756.06;;;6.81;76.05
81909;BME280;71372;43.514;1.512;2024-02-28T07:52:55;100758.81;;;6.76;76.21
81909;BME280;71372;43.514;1.512;2024-02-28T07:55:20;100770.13;;;6.83;75.91
81909;BME280;71372;43.514;1.512;2024-02-28T07:57:52;100774.47;;;6.85;75.87
81909;BME280;71372;43.514;1.512;2024-02-28T08:00:18;100768.09;;;6.95;75.92
81909;BME280;71372;43.514;1.512;2024-02-28T08:02:45;100773.19;;;7.04;76.22
81909;BME280;71372;43.514;1.512;2024-02-28T08:05:13;100773.28;;;7.00;75.31
81909;BME280;71372;43.514;1.512;2024-02-28T08:07:41;100772.44;;;6.99;75.72
81909;BME280;71372;43.514;1.512;2024-02-28T08:10:07;100774.41;;;6.90;75.44
81909;BME280;71372;43.514;1.512;2024-02-28T08:12:36;100778.72;;;6.94;75.21
81909;BME280;71372;43.514;1.512;2024-02-28T08:15:03;100775.06;;;6.99;75.23
81909;BME280;71372;43.514;1.512;2024-02-28T08:17:29;100776.91;;;6.96;75.61
81909;BME280;71372;43.514;1.512;2024-02-28T08:19:55;100790.13;;;6.96;75.27
81909;BME280;71372;43.514;1.512;2024-02-28T08:22:21;100784.59;;;7.07;74.95
81909;BME280;71372;43.514;1.512;2024-02-28T08:24:47;100783.63;;;7.12;74.76
81909;BME280;71372;43.514;1.512;2024-02-28T08:27:12;100788.13;;;7.07;75.00
81909;BME280;71372;43.514;1.512;2024-02-28T08:29:41;100783.66;;;7.09;74.42
81909;BME280;71372;43.514;1.512;2024-02-28T08:32:12;100802.91;;;7.17;74.48
81909;BME280;71372;43.514;1.512;2024-02-28T08:34:38;100799.50;;;7.12;74.57
81909;BME280;71372;43.514;1.512;2024-02-28T08:37:04;100815.22;;;7.18;74.32
81909;BME280;71372;43.514;1.512;2024-02-28T08:39:30;100805.78;;;7.07;74.50
81909;BME280;71372;43.514;1.512;2024-02-28T08:41:56;100811.00;;;7.11;74.45
81909;BME280;71372;43.514;1.512;2024-02-28T08:44:22;100810.81;;;7.19;74.48
81909;BME280;71372;43.514;1.512;2024-02-28T08:46:48;100815.31;;;7.15;73.98
81909;BME280;71372;43.514;1.512;2024-02-28T08:49:14;100806.25;;;7.25;73.63
81909;BME280;71372;43.514;1.512;2024-02-28T08:51:40;100815.13;;;7.24;73.34
81909;BME280;71372;43.514;1.512;2024-02-28T08:54:06;100806.38;;;7.19;73.25
81909;BME280;71372;43.514;1.512;2024-02-28T08:56:32;100799.41;;;7.15;73.23
81909;BME280;71372;43.514;1.512;2024-02-28T08:58:59;100800.44;;;7.08;73.05
81909;BME280;71372;43.514;1.512;2024-02-28T09:01:25;100805.47;;;7.20;73.63
81909;BME280;71372;43.514;1.512;2024-02-28T09:03:51;100807.25;;;7.20;73.21
81909;BME280;71372;43.514;1.512;2024-02-28T09:06:17;100811.63;;;7.22;73.21
81909;BME280;71372;43.514;1.512;2024-02-28T09:08:42;100810.66;;;7.26;73.33
81909;BME280;71372;43.514;1.512;2024-02-28T09:11:09;100808.31;;;7.13;73.06
81909;BME280;71372;43.514;1.512;2024-02-28T09:13:35;100816.34;;;7.08;73.05
81909;BME280;71372;43.514;1.512;2024-02-28T09:16:03;100815.44;;;7.09;73.40
81909;BME280;71372;43.514;1.512;2024-02-28T09:18:29;100813.56;;;7.14;73.06
81909;BME280;71372;43.514;1.512;2024-02-28T09:20:55;100809.31;;;7.07;73.56
81909;BME280;71372;43.514;1.512;2024-02-28T09:23:21;100801.28;;;7.12;73.70
81909;BME280;71372;43.514;1.512;2024-02-28T09:25:47;100796.84;;;7.12;73.14
81909;BME280;71372;43.514;1.512;2024-02-28T09:28:13;100782.66;;;7.15;73.27
81909;BME280;71372;43.514;1.512;2024-02-28T09:30:42;100776.13;;;7.29;73.52
81909;BME280;71372;43.514;1.512;2024-02-28T09:33:08;100773.41;;;7.34;73.58
81909;BME280;71372;43.514;1.512;2024-02-28T09:35:35;100776.94;;;7.35;73.04
81909;BME280;71372;43.514;1.512;2024-02-28T09:38:02;100773.41;;;7.32;72.76
81909;BME280;71372;43.514;1.512;2024-02-28T09:40:28;100774.69;;;7.53;72.65
81909;BME280;71372;43.514;1.512;2024-02-28T09:43:00;100783.41;;;7.58;72.09
81909;BME280;71372;43.514;1.512;2024-02-28T09:45:27;100786.03;;;7.60;72.10
81909;BME280;71372;43.514;1.512;2024-02-28T09:48:02;100785.34;;;7.87;71.91
81909;BME280;71372;43.514;1.512;2024-02-28T09:50:29;100785.00;;;8.00;71.23
81909;BME280;71372;43.514;1.512;2024-02-28T09:52:55;100785.59;;;8.11;71.42
81909;BME280;71372;43.514;1.512;2024-02-28T09:55:21;100779.97;;;8.23;70.84
81909;BME280;71372;43.514;1.512;2024-02-28T09:57:48;100780.44;;;8.39;70.91
81909;BME280;71372;43.514;1.512;2024-02-28T10:00:19;100776.81;;;8.43;70.26
81909;BME280;71372;43.514;1.512;2024-02-28T10:02:49;100784.13;;;8.33;69.22
81909;BME280;71372;43.514;1.512;2024-02-28T10:05:17;100785.41;;;8.53;69.41
81909;BME280;71372;43.514;1.512;2024-02-28T10:07:47;100793.84;;;8.67;70.08
81909;BME280;71372;43.514;1.512;2024-02-28T10:10:13;100800.53;;;8.80;69.78
81909;BME280;71372;43.514;1.512;2024-02-28T10:12:42;100809.72;;;8.98;69.58
81909;BME280;71372;43.514;1.512;2024-02-28T10:15:09;100812.16;;;9.05;68.85
81909;BME280;71372;43.514;1.512;2024-02-28T10:17:35;100810.28;;;9.09;69.41
81909;BME280;71372;43.514;1.512;2024-02-28T10:20:01;100816.34;;;9.14;68.80
81909;BME280;71372;43.514;1.512;2024-02-28T10:22:36;100811.63;;;9.24;68.22
81909;BME280;71372;43.514;1.512;2024-02-28T10:25:03;100801.28;;;9.15;68.21
81909;BME280;71372;43.514;1.512;2024-02-28T10:27:33;100819.25;;;9.34;68.32
81909;BME280;71372;43.514;1.512;2024-02-28T10:30:03;100831.97;;;9.53;67.94
81909;BME280;71372;43.514;1.512;2024-02-28T10:32:33;100827.59;;;9.52;66.76
81909;BME280;71372;43.514;1.512;2024-02-28T10:35:03;100814.38;;;9.77;67.48
81909;BME280;71372;43.514;1.512;2024-02-28T10:37:30;100811.13;;;9.95;66.89
81909;BME280;71372;43.514;1.512;2024-02-28T10:39:57;100806.81;;;9.91;65.44
81909;BME280;71372;43.514;1.512;2024-02-28T10:42:29;100820.47;;;10.07;65.32
81909;BME280;71372;43.514;1.512;2024-02-28T10:44:57;100824.09;;;10.04;63.89
81909;BME280;71372;43.514;1.512;2024-02-28T10:47:25;100805.69;;;10.24;64.00
81909;BME280;71372;43.514;1.512;2024-02-28T10:49:51;100797.28;;;10.37;62.41
81909;BME280;71372;43.514;1.512;2024-02-28T10:52:19;100784.78;;;10.39;61.76
81909;BME280;71372;43.514;1.512;2024-02-28T10:54:54;100799.06;;;10.61;61.67
81909;BME280;71372;43.514;1.512;2024-02-28T10:57:24;100794.22;;;10.72;62.42
81909;BME280;71372;43.514;1.512;2024-02-28T10:59:51;100796.41;;;10.61;61.27
81909;BME280;71372;43.514;1.512;2024-02-28T11:02:17;100785.28;;;10.73;61.79
81909;BME280;71372;43.514;1.512;2024-02-28T11:04:43;100802.25;;;10.71;62.03
81909;BME280;71372;43.514;1.512;2024-02-28T11:07:10;100794.34;;;10.69;62.16
81909;BME280;71372;43.514;1.512;2024-02-28T11:09:36;100795.41;;;10.64;62.13
81909;BME280;71372;43.514;1.512;2024-02-28T11:12:04;100811.75;;;10.54;61.77
81909;BME280;71372;43.514;1.512;2024-02-28T11:14:30;100807.97;;;10.60;61.81
81909;BME280;71372;43.514;1.512;2024-02-28T11:17:03;100803.81;;;10.76;61.97
81909;BME280;71372;43.514;1.512;2024-02-28T11:19:30;100785.94;;;10.80;60.63
81909;BME280;71372;43.514;1.512;2024-02-28T11:21:57;100795.03;;;10.98;61.26
81909;BME280;71372;43.514;1.512;2024-02-28T11:24:27;100785.38;;;10.95;60.68
81909;BME280;71372;43.514;1.512;2024-02-28T11:26:54;100778.13;;;10.75;59.22
81909;BME280;71372;43.514;1.512;2024-02-28T11:29:27;100777.59;;;10.89;60.26
81909;BME280;71372;43.514;1.512;2024-02-28T11:31:54;100775.81;;;10.90;60.06
81909;BME280;71372;43.514;1.512;2024-02-28T11:34:21;100780.56;;;11.05;59.62
81909;BME280;71372;43.514;1.512;2024-02-28T11:36:50;100776.50;;;11.18;58.90
81909;BME280;71372;43.514;1.512;2024-02-28T11:39:17;100780.22;;;11.14;58.80
81909;BME280;71372;43.514;1.512;2024-02-28T11:41:44;100777.56;;;11.12;58.19
81909;BME280;71372;43.514;1.512;2024-02-28T11:44:13;100780.09;;;11.17;57.44
81909;BME280;71372;43.514;1.512;2024-02-28T11:46:46;100776.66;;;11.37;57.95
81909;BME280;71372;43.514;1.512;2024-02-28T11:49:13;100768.38;;;11.43;57.51
81909;BME280;71372;43.514;1.512;2024-02-28T11:51:43;100770.38;;;11.38;55.74
81909;BME280;71372;43.514;1.512;2024-02-28T11:54:09;100758.91;;;11.14;56.09
81909;BME280;71372;43.514;1.512;2024-02-28T11:56:39;100757.06;;;11.38;56.91
81909;BME280;71372;43.514;1.512;2024-02-28T11:59:05;100764.84;;;11.42;56.60
81909;BME280;71372;43.514;1.512;2024-02-28T12:01:35;100768.75;;;11.56;57.02
81909;BME280;71372;43.514;1.512;2024-02-28T12:04:03;100756.16;;;11.59;55.92
81909;BME280;71372;43.514;1.512;2024-02-28T12:06:32;100768.09;;;11.51;55.84
81909;BME280;71372;43.514;1.512;2024-02-28T12:08:58;100765.34;;;11.52;56.33
81909;BME280;71372;43.514;1.512;2024-02-28T12:11:24;100763.72;;;11.48;55.56
81909;BME280;71372;43.514;1.512;2024-02-28T12:13:54;100755.28;;;11.59;55.46
81909;BME280;71372;43.514;1.512;2024-02-28T12:16:26;100754.78;;;11.71;55.66
81909;BME280;71372;43.514;1.512;2024-02-28T12:18:53;100761.97;;;11.69;54.79
81909;BME280;71372;43.514;1.512;2024-02-28T12:21:19;100755.53;;;11.75;55.16
81909;BME280;71372;43.514;1.512;2024-02-28T12:23:46;100754.13;;;11.88;55.55
81909;BME280;71372;43.514;1.512;2024-02-28T12:26:16;100756.78;;;11.88;54.54
81909;BME280;71372;43.514;1.512;2024-02-28T12:28:42;100747.34;;;12.01;55.15
81909;BME280;71372;43.514;1.512;2024-02-28T12:31:08;100747.28;;;12.23;55.06
81909;BME280;71372;43.514;1.512;2024-02-28T12:33:37;100759.06;;;12.17;53.25
81909;BME280;71372;43.514;1.512;2024-02-28T12:36:03;100760.63;;;12.23;53.62
81909;BME280;71372;43.514;1.512;2024-02-28T12:38:30;100755.31;;;12.42;53.98
81909;BME280;71372;43.514;1.512;2024-02-28T12:40:56;100748.56;;;12.53;53.74
81909;BME280;71372;43.514;1.512;2024-02-28T12:43:23;100745.22;;;12.69;53.47
81909;BME280;71372;43.514;1.512;2024-02-28T12:45:49;100734.03;;;12.79;52.91
81909;BME280;71372;43.514;1.512;2024-02-28T12:48:15;100731.00;;;12.87;52.87
81909;BME280;71372;43.514;1.512;2024-02-28T12:50:41;100740.09;;;12.83;51.07
81909;BME280;71372;43.514;1.512;2024-02-28T12:53:06;100732.84;;;12.66;51.92
81909;BME280;71372;43.514;1.512;2024-02-28T12:55:33;100729.88;;;12.53;52.48